createdAt,value
2019-03-28T00:00:01.870Z,9.2
2019-03-28T00:05:01.531Z,9.2
2019-03-28T00:10:02.452Z,9.1
2019-03-28T00:15:01.343Z,9.1
2019-03-28T00:20:02.272Z,9.1
2019-03-28T00:25:02.164Z,9.1
2019-03-28T00:30:02.225Z,9.1
2019-03-28T00:35:01.370Z,9.1
2019-03-28T00:40:02.157Z,9.1
2019-03-28T00:45:01.800Z,9.1
2019-03-28T00:50:01.722Z,9.1
2019-03-28T00:55:01.522Z,9.2
2019-03-28T01:00:02.310Z,9.2
2019-03-28T01:05:01.791Z,9.1
2019-03-28T01:10:02.260Z,9.2
2019-03-28T01:15:01.468Z,9.1
2019-03-28T01:20:01.679Z,9.1
2019-03-28T01:25:02.084Z,9.1
2019-03-28T01:30:01.805Z,9.1
2019-03-28T01:35:02.003Z,9.1
2019-03-28T01:40:01.600Z,9.1
2019-03-28T01:45:01.447Z,9
2019-03-28T01:50:02.359Z,9
2019-03-28T01:55:02.116Z,9
2019-03-28T02:00:02.146Z,8.9
2019-03-28T02:05:02.301Z,9
2019-03-28T02:10:02.040Z,9
2019-03-28T02:15:02.049Z,9
2019-03-28T02:20:02.007Z,9
2019-03-28T02:25:02.000Z,8.9
2019-03-28T02:30:01.609Z,8.9
2019-03-28T02:35:01.491Z,8.9
2019-03-28T02:40:01.856Z,8.9
2019-03-28T02:45:01.616Z,8.9
2019-03-28T02:50:01.587Z,8.9
2019-03-28T02:55:01.916Z,8.9
2019-03-28T03:00:01.726Z,9
2019-03-28T03:05:01.863Z,9
2019-03-28T03:10:02.323Z,9
2019-03-28T03:15:01.864Z,9
2019-03-28T03:20:01.682Z,9
2019-03-28T03:25:01.352Z,9
2019-03-28T03:30:03.518Z,9
2019-03-28T03:35:02.132Z,9
2019-03-28T03:40:01.694Z,9
2019-03-28T03:45:01.941Z,9
2019-03-28T03:50:01.820Z,9
2019-03-28T03:55:01.523Z,9
2019-03-28T04:00:02.117Z,9
2019-03-28T04:05:01.743Z,8.9
2019-03-28T04:10:01.831Z,8.9
2019-03-28T04:15:01.522Z,8.9
2019-03-28T04:20:01.751Z,8.9
2019-03-28T04:25:01.517Z,9
2019-03-28T04:30:02.120Z,9
2019-03-28T04:35:01.524Z,9
2019-03-28T04:40:02.252Z,8.9
2019-03-28T04:45:01.862Z,9
2019-03-28T04:50:01.867Z,9
2019-03-28T04:55:01.471Z,9
2019-03-28T05:00:02.266Z,9
2019-03-28T05:05:01.351Z,9.1
2019-03-28T05:10:01.159Z,9.1
2019-03-28T05:15:01.804Z,9.2
2019-03-28T05:20:01.891Z,9.1
2019-03-28T05:25:01.797Z,9.1
2019-03-28T05:30:02.125Z,9.2
2019-03-28T05:35:02.181Z,9.2
2019-03-28T05:40:01.526Z,9.2
2019-03-28T05:45:01.201Z,9.2
2019-03-28T05:50:01.650Z,9.2
2019-03-28T05:55:05.190Z,9.2
2019-03-28T06:00:01.715Z,9.3
2019-03-28T06:05:01.322Z,9.3
2019-03-28T06:10:02.442Z,9.4
2019-03-28T06:15:02.056Z,9.3
2019-03-28T06:20:02.309Z,9.3
2019-03-28T06:25:05.513Z,9.3
2019-03-28T06:30:02.126Z,9.3
2019-03-28T06:35:01.859Z,9.4
2019-03-28T06:40:01.371Z,9.4
2019-03-28T06:45:03.773Z,9.4
2019-03-28T06:50:01.316Z,9.4
2019-03-28T06:55:01.849Z,9.6
2019-03-28T07:00:01.763Z,9.6
2019-03-28T07:05:02.016Z,9.7
2019-03-28T07:10:02.496Z,9.7
2019-03-28T07:15:01.349Z,9.7
2019-03-28T07:20:01.718Z,9.8
2019-03-28T07:25:01.260Z,9.9
2019-03-28T07:30:01.679Z,10
2019-03-28T07:35:03.101Z,10
2019-03-28T07:40:01.387Z,10.2
2019-03-28T07:45:01.762Z,10.3
2019-03-28T07:50:01.669Z,10.3
2019-03-28T07:55:01.885Z,10.4
2019-03-28T08:00:04.266Z,10.6
2019-03-28T08:05:02.264Z,10.6
2019-03-28T08:10:02.017Z,10.6
2019-03-28T08:15:01.409Z,10.7
2019-03-28T08:20:01.424Z,10.7
2019-03-28T08:25:02.319Z,10.8
2019-03-28T08:30:01.783Z,10.8
2019-03-28T08:35:01.959Z,10.8
2019-03-28T08:40:01.654Z,10.8
2019-03-28T08:45:01.663Z,10.8
2019-03-28T08:50:02.166Z,10.7
2019-03-28T08:55:02.160Z,10.6
2019-03-28T09:00:01.341Z,10.6
2019-03-28T09:05:01.824Z,10.6
2019-03-28T09:10:01.524Z,10.6
2019-03-28T09:15:01.848Z,10.6
2019-03-28T09:20:02.119Z,10.7
2019-03-28T09:25:01.647Z,10.6
2019-03-28T09:30:02.127Z,10.7
2019-03-28T09:35:02.185Z,10.7
2019-03-28T09:40:01.600Z,10.7
2019-03-28T09:45:01.533Z,10.8
2019-03-28T09:50:01.575Z,10.7
2019-03-28T09:55:02.267Z,10.7
2019-03-28T10:00:01.607Z,10.7
2019-03-28T10:05:01.475Z,10.8
2019-03-28T10:10:01.908Z,10.9
2019-03-28T10:15:02.159Z,11
2019-03-28T10:20:01.612Z,11
2019-03-28T10:25:02.187Z,11
2019-03-28T10:30:01.416Z,11.1
2019-03-28T10:35:01.500Z,11.1
2019-03-28T10:40:02.027Z,11.2
2019-03-28T10:45:01.232Z,11.2
2019-03-28T10:50:03.812Z,11.2
2019-03-28T10:55:01.757Z,11.4
2019-03-28T11:00:01.784Z,11.4
2019-03-28T11:05:01.838Z,11.5
2019-03-28T11:10:01.672Z,11.7
2019-03-28T11:15:01.893Z,11.8
2019-03-28T11:20:02.324Z,11.9
2019-03-28T11:25:01.943Z,12.1
2019-03-28T11:30:01.730Z,12.2
2019-03-28T11:35:02.459Z,12.3
2019-03-28T11:40:01.988Z,12.3
2019-03-28T11:45:01.455Z,12.4
2019-03-28T11:50:01.633Z,12.4
2019-03-28T11:55:02.016Z,12.3
2019-03-28T12:00:01.444Z,12.3
2019-03-28T12:05:01.883Z,12.3
2019-03-28T12:10:01.937Z,12.3
2019-03-28T12:15:02.035Z,12.3
2019-03-28T12:20:01.700Z,12.2
2019-03-28T12:25:01.506Z,12.2
2019-03-28T12:30:02.178Z,12.3
2019-03-28T12:35:01.215Z,12.3
2019-03-28T12:40:02.667Z,12.3
2019-03-28T12:45:01.392Z,12.2
2019-03-28T12:50:01.749Z,12.2
2019-03-28T12:55:02.114Z,12.3
2019-03-28T13:00:01.330Z,12.4
2019-03-28T13:05:01.341Z,12.6
2019-03-28T13:10:02.099Z,12.7
2019-03-28T13:15:01.784Z,12.7
2019-03-28T13:20:02.019Z,12.9
2019-03-28T13:25:01.816Z,12.9
2019-03-28T13:30:02.158Z,12.9
2019-03-28T13:35:01.829Z,12.8
2019-03-28T13:40:01.902Z,12.7
2019-03-28T13:45:01.623Z,12.6
2019-03-28T13:50:01.965Z,12.5
2019-03-28T13:55:01.496Z,12.5
2019-03-28T14:00:02.102Z,12.5
2019-03-28T14:05:01.793Z,12.4
2019-03-28T14:10:02.455Z,12.5
2019-03-28T14:15:02.179Z,12.6
2019-03-28T14:20:02.445Z,12.6
2019-03-28T14:25:01.429Z,12.6
2019-03-28T14:30:02.262Z,12.5
2019-03-28T14:35:01.590Z,12.6
2019-03-28T14:40:02.451Z,12.6
2019-03-28T14:45:02.120Z,12.6
2019-03-28T14:50:01.819Z,12.6
2019-03-28T14:55:02.504Z,12.7
2019-03-28T15:00:01.255Z,12.7
2019-03-28T15:05:01.401Z,12.8
2019-03-28T15:10:02.229Z,12.8
2019-03-28T15:15:01.687Z,12.9
2019-03-28T15:20:01.715Z,12.9
2019-03-28T15:25:01.773Z,12.9
2019-03-28T15:30:01.759Z,12.9
2019-03-28T15:35:01.509Z,12.9
2019-03-28T15:40:02.325Z,12.9
2019-03-28T15:45:01.499Z,13
2019-03-28T15:50:01.903Z,13
2019-03-28T15:55:01.303Z,13.1
2019-03-28T16:00:02.023Z,13.1
2019-03-28T16:05:02.113Z,13.1
2019-03-28T16:10:01.779Z,13
2019-03-28T16:15:01.213Z,12.8
2019-03-28T16:20:02.293Z,12.8
2019-03-28T16:25:01.330Z,12.7
2019-03-28T16:30:02.226Z,12.7
2019-03-28T16:35:02.462Z,12.7
2019-03-28T16:40:01.892Z,12.6
2019-03-28T16:45:02.088Z,12.6
2019-03-28T16:50:02.323Z,12.6
2019-03-28T16:55:02.163Z,12.5
2019-03-28T17:00:01.624Z,12.4
2019-03-28T17:05:01.975Z,12.4
2019-03-28T17:10:02.064Z,12.3
2019-03-28T17:15:02.035Z,12.2
2019-03-28T17:20:02.098Z,12.1
2019-03-28T17:25:01.645Z,12.1
2019-03-28T17:30:02.086Z,12
2019-03-28T17:35:01.234Z,12
2019-03-28T17:40:01.621Z,11.9
2019-03-28T17:45:01.704Z,11.9
2019-03-28T17:50:01.737Z,11.8
2019-03-28T17:55:02.256Z,11.7
2019-03-28T18:00:02.037Z,11.7
2019-03-28T18:05:08.817Z,11.6
2019-03-28T18:10:01.357Z,11.5
2019-03-28T18:15:02.185Z,11.5
2019-03-28T18:20:01.333Z,11.5
2019-03-28T18:25:01.581Z,11.5
2019-03-28T18:30:04.956Z,11.5
2019-03-28T18:35:05.452Z,11.4
2019-03-28T18:40:03.989Z,11.3
2019-03-28T18:45:01.754Z,11.3
2019-03-28T18:50:03.515Z,11.3
2019-03-28T18:55:02.104Z,11.2
2019-03-28T19:00:01.488Z,11.2
2019-03-28T19:05:01.567Z,11.2
2019-03-28T19:10:01.944Z,11.1
2019-03-28T19:15:01.187Z,11
2019-03-28T19:20:02.236Z,11
2019-03-28T19:25:01.296Z,10.8
2019-03-28T19:30:02.050Z,10.8
2019-03-28T19:35:03.084Z,10.7
2019-03-28T19:40:02.984Z,10.5
2019-03-28T19:45:01.593Z,10.4
2019-03-28T19:50:02.333Z,10.3
2019-03-28T19:55:02.231Z,10.3
2019-03-28T20:00:01.505Z,10.2
2019-03-28T20:05:01.747Z,10
2019-03-28T20:10:10.751Z,9.9
2019-03-28T20:15:02.158Z,9.8
2019-03-28T20:20:01.837Z,9.8
2019-03-28T20:25:01.400Z,9.7
2019-03-28T20:30:01.638Z,9.7
2019-03-28T20:35:02.232Z,9.5
2019-03-28T20:40:02.129Z,9.5
2019-03-28T20:45:01.957Z,9.5
2019-03-28T20:50:01.597Z,9.5
2019-03-28T20:55:01.944Z,9.5
2019-03-28T21:00:01.592Z,9.5
2019-03-28T21:05:01.336Z,9.5
2019-03-28T21:10:03.559Z,9.5
2019-03-28T21:15:01.234Z,9.4
2019-03-28T21:20:01.695Z,9.3
2019-03-28T21:25:02.018Z,9.3
2019-03-28T21:30:01.338Z,9.4
2019-03-28T21:35:01.904Z,9.3
2019-03-28T21:40:01.861Z,9.4
2019-03-28T21:45:02.189Z,9.4
2019-03-28T21:50:01.755Z,9.4
2019-03-28T21:55:01.262Z,9.4
2019-03-28T22:00:01.159Z,9.3
2019-03-28T22:05:01.827Z,9.3
2019-03-28T22:10:02.379Z,9.3
2019-03-28T22:15:01.844Z,9.3
2019-03-28T22:20:02.340Z,9.3
2019-03-28T22:25:01.780Z,9.3
2019-03-28T22:30:01.852Z,9.3
2019-03-28T22:35:01.553Z,9.3
2019-03-28T22:40:02.183Z,9.2
2019-03-28T22:45:01.430Z,9.2
2019-03-28T22:50:01.918Z,9.2
2019-03-28T22:55:01.365Z,9.2
2019-03-28T23:00:04.193Z,9
2019-03-28T23:05:01.456Z,9
2019-03-28T23:10:02.035Z,8.9
2019-03-28T23:15:02.314Z,8.8
2019-03-28T23:20:02.059Z,8.7
2019-03-28T23:25:01.711Z,8.7
2019-03-28T23:30:02.835Z,8.6
2019-03-28T23:35:02.224Z,8.5
2019-03-28T23:40:01.894Z,8.5
2019-03-28T23:45:01.360Z,8.4
2019-03-28T23:50:01.499Z,8.5
2019-03-28T23:55:01.983Z,8.4
